Chesterfield Inlet, Chesterfield Inlet Airport (CYCS)

NameChesterfield Inlet Airport
CityChesterfield Inlet
CountryCanada
ICAOCYCS
IATAYCS
Altitude10 m
CoordinatesGoogle Map
Live Air TrafficLiveATC.net
METARCYCS 191600Z 34004KT 15SM SCT100 M16/M19 A2985 RMK AC3 CALLOUT SLP112
2019-04-19 16:00:00 Wind: North-Northwest (340°) 2.06 m/s - Visibility: 24140.1 m - Temperature: -16 °C - Dew point: -19 °C - Humidity: 77.9% - Pressure: 1010.84 hPa

Sorry, no flights used the airport in this database.